Mekhanik Banatov — UABI — position and weather

sailwx.info

Track history (hours):
 
Tides and Currents Weather Stations Pressure Air Temp Water Temp Dewpoint Dewpoint Depression Visibility Wind Speed Wind Dir Waves Ship Positions

Mekhanik Banatov

Last reported at 2017-Nov-10 19:54 UTC. Time now 2017-Nov-19 14:22 UTC.
Position N 45°32' E 036°46'.
Warning: this ship's position is 8 days out of date.

Length 132 m; draft 2.8 m.

Type: Tanker. MMSI: 273272100.

Date/timePositionNaut miles runAvg speedWind from/ knotsBaromVisibWave heightAir tempDewpointWater temp
2017-Nov-10 19:54N 45°32' E 036°46'4 7.3
2017-Nov-10 19:23N 45°29' E 036°43'3 7.3
2017-Nov-10 19:00N 45°27' E 036°42'4 7.1
2017-Nov-10 18:30N 45°23' E 036°41'3 5.5
2017-Nov-10 18:00N 45°21' E 036°39'3 6.0
2017-Nov-10 17:30N 45°20' E 036°35'3 6.3
2017-Nov-10 17:00N 45°19' E 036°31'3 6.1
2017-Nov-10 16:30N 45°16' E 036°29'2 4.2
2017-Nov-10 16:00N 45°14' E 036°29'1 1.4
2017-Nov-10 15:30N 45°14' E 036°30'1 0.4
2017-Nov-10 12:25N 45°13' E 036°31'0 0.1
2017-Nov-10 11:58N 45°13' E 036°31'0 0.0
2017-Nov-10 11:30N 45°13' E 036°31'0 0.0
2017-Nov-10 10:21N 45°13' E 036°31'0 0.0
2017-Nov-10 10:00N 45°13' E 036°31'0 0.0
2017-Nov-10 09:30N 45°13' E 036°31'0 0.0
2017-Nov-10 08:59N 45°13' E 036°31'1 1.9
2017-Nov-10 08:30N 45°12' E 036°31'4 6.8
2017-Nov-10 07:53N 45°08' E 036°32'5 0.4
2017-Nov-09 19:43N 45°12' E 036°28'3 6.9
2017-Nov-09 19:17N 45°15' E 036°28'3 6.6
2017-Nov-09 18:52N 45°18' E 036°29'3 6.9
2017-Nov-09 18:30N 45°19' E 036°33'3 6.4
2017-Nov-09 18:00N 45°20' E 036°37'3 5.7
2017-Nov-09 17:30N 45°22' E 036°40'3 6.9
2017-Nov-09 17:00N 45°25' E 036°41'2 3.2
2017-Nov-09 16:30N 45°26' E 036°42'2 3.6
2017-Nov-09 15:58N 45°28' E 036°44'0 0.5
2017-Nov-09 15:24N 45°28' E 036°44'0 0.0
2017-Nov-09 15:00N 45°28' E 036°44'0 0.0
2017-Nov-09 14:25N 45°28' E 036°44'0 0.0
2017-Nov-09 13:57N 45°28' E 036°44'0 0.0
2017-Nov-09 13:30N 45°28' E 036°44'0 0.0
2017-Nov-09 13:00N 45°28' E 036°44'0 0.0
2017-Nov-09 12:22N 45°28' E 036°44'0 0.0
2017-Nov-09 11:56N 45°28' E 036°44'0 0.0
2017-Nov-09 11:24N 45°28' E 036°44'0 0.0
2017-Nov-09 11:00N 45°28' E 036°44'0 0.0
2017-Nov-09 10:28N 45°28' E 036°44'0 0.0
2017-Nov-09 10:00N 45°28' E 036°44'0 0.0
2017-Nov-09 09:23N 45°28' E 036°44'0 0.0
2017-Nov-09 08:58N 45°28' E 036°44'0 0.0
2017-Nov-09 08:30N 45°28' E 036°44'0 0.0
2017-Nov-09 07:54N 45°28' E 036°44'0 0.0
2017-Nov-09 07:23N 45°28' E 036°44'0 0.0
2017-Nov-09 07:00N 45°28' E 036°44'0 0.0
2017-Nov-09 06:28N 45°28' E 036°44'0 0.0
2017-Nov-09 05:54N 45°28' E 036°44'0 0.0
2017-Nov-09 05:27N 45°28' E 036°44'0 0.0
2017-Nov-09 04:57N 45°28' E 036°44'0 0.0
2017-Nov-09 04:30N 45°28' E 036°44'0 0.0
2017-Nov-09 03:33N 45°28' E 036°44'0 0.0
2017-Nov-09 03:17N 45°28' E 036°44'0 0.0
2017-Nov-09 02:54N 45°28' E 036°44'0 0.0
2017-Nov-09 02:28N 45°28' E 036°44'0 0.0
2017-Nov-09 01:48N 45°28' E 036°44'0 0.0
2017-Nov-09 01:18N 45°28' E 036°44'0 0.0
2017-Nov-09 01:00N 45°28' E 036°44'0 0.0
2017-Nov-09 00:26N 45°28' E 036°44'0 0.0
2017-Nov-08 23:33N 45°28' E 036°44'0 0.0
2017-Nov-08 21:41N 45°28' E 036°44'0 0.0
2017-Nov-08 21:25N 45°28' E 036°44'0 0.0
2017-Nov-08 19:42N 45°28' E 036°44'0 0.0
2017-Nov-08 19:25N 45°28' E 036°44'0 0.0
2017-Nov-08 17:43N 45°28' E 036°44'0 0.0
2017-Nov-08 17:29N 45°28' E 036°44'0 0.0
2017-Nov-08 17:00N 45°28' E 036°44'0 0.0
2017-Nov-08 16:27N 45°28' E 036°44'0 0.0
2017-Nov-08 16:00N 45°28' E 036°44'0 0.0
2017-Nov-08 15:21N 45°28' E 036°44'0 0.0
2017-Nov-08 14:58N 45°28' E 036°44'0 0.0
2017-Nov-08 14:29N 45°28' E 036°44'0 0.0
2017-Nov-08 13:56N 45°28' E 036°44'0 0.0
2017-Nov-08 13:28N 45°28' E 036°44'0 0.0
2017-Nov-08 12:38N 45°28' E 036°44'0 0.0
2017-Nov-08 12:30N 45°28' E 036°44'0 0.0
2017-Nov-08 11:54N 45°28' E 036°44'0 0.0
2017-Nov-08 10:48N 45°28' E 036°44'0 0.0
2017-Nov-08 09:59N 45°28' E 036°44'0 0.0
2017-Nov-08 09:28N 45°28' E 036°44'0 0.0
2017-Nov-08 08:57N 45°28' E 036°44'0 0.0
2017-Nov-08 08:29N 45°28' E 036°44'0 0.0
2017-Nov-08 08:00N 45°28' E 036°44'0 0.0
2017-Nov-08 07:27N 45°28' E 036°44'0 0.0
2017-Nov-08 06:56N 45°28' E 036°44'0 0.0
2017-Nov-08 06:24N 45°28' E 036°44'0 0.0
2017-Nov-08 05:51N 45°28' E 036°44'0 0.0
2017-Nov-08 05:19N 45°28' E 036°44'0 0.0
2017-Nov-08 04:49N 45°28' E 036°44'0 0.0
2017-Nov-08 04:17N 45°28' E 036°44'0 0.0
2017-Nov-08 04:00N 45°28' E 036°44'0 0.0
2017-Nov-08 03:28N 45°28' E 036°44'0 0.0
2017-Nov-08 01:45N 45°28' E 036°44'0 0.0
2017-Nov-08 01:21N 45°28' E 036°44'0 0.0
2017-Nov-08 00:17N 45°28' E 036°44'0 0.0
2017-Nov-07 23:56N 45°28' E 036°44'0 0.0
2017-Nov-07 23:27N 45°28' E 036°44'0 0.0
2017-Nov-07 22:31N 45°28' E 036°44'0 0.1
2017-Nov-07 22:28N 45°28' E 036°44'0 0.0
2017-Nov-07 19:50N 45°28' E 036°44'0 0.0
2017-Nov-07 18:32N 45°28' E 036°44'0 0.0
2017-Nov-07 18:24N 45°28' E 036°44'0 0.0
2017-Nov-07 17:59N 45°28' E 036°44'0 0.0
2017-Nov-07 17:28N 45°28' E 036°44'0 0.0
2017-Nov-07 16:59N 45°28' E 036°44'0 0.0
2017-Nov-07 16:28N 45°28' E 036°44'0 0.0
2017-Nov-07 15:59N 45°28' E 036°44'0 0.0
2017-Nov-07 15:25N 45°28' E 036°44'0 0.0
2017-Nov-07 14:54N 45°28' E 036°44'0 0.0
2017-Nov-07 14:28N 45°28' E 036°44'0 0.0
2017-Nov-07 14:00N 45°28' E 036°44'0 0.0
2017-Nov-07 13:28N 45°28' E 036°44'0 0.0
2017-Nov-07 12:58N 45°28' E 036°44'0 0.0
2017-Nov-07 12:28N 45°28' E 036°44'0 0.0
2017-Nov-07 11:56N 45°28' E 036°44'0 0.0
2017-Nov-07 11:22N 45°28' E 036°44'0 0.0
2017-Nov-07 10:55N 45°28' E 036°44'0 0.0
2017-Nov-07 10:30N 45°28' E 036°44'0 0.0
2017-Nov-07 09:59N 45°28' E 036°44'0 0.0
2017-Nov-07 09:29N 45°28' E 036°44'0 0.0
2017-Nov-07 08:57N 45°28' E 036°44'0 0.0
2017-Nov-07 08:30N 45°28' E 036°44'0 0.0
2017-Nov-07 07:45N 45°28' E 036°44'0 0.0
2017-Nov-07 07:29N 45°28' E 036°44'0 0.0
2017-Nov-07 06:54N 45°28' E 036°44'0 0.0
2017-Nov-07 06:25N 45°28' E 036°44'0 0.0
2017-Nov-07 05:53N 45°28' E 036°44'0 0.0
2017-Nov-07 05:29N 45°28' E 036°44'0 0.0
2017-Nov-07 04:55N 45°28' E 036°44'0 0.0
2017-Nov-07 04:24N 45°28' E 036°44'0 0.0
2017-Nov-07 03:59N 45°28' E 036°44'0 0.0
2017-Nov-07 03:30N 45°28' E 036°44'0 0.0
2017-Nov-07 01:19N 45°28' E 036°44'0 0.0
2017-Nov-07 00:49N 45°28' E 036°44'0 0.0
2017-Nov-07 00:25N 45°28' E 036°44'0 0.0
2017-Nov-07 00:00N 45°28' E 036°44'0 0.0
2017-Nov-06 22:48N 45°28' E 036°44'0 0.0
2017-Nov-06 22:28N 45°28' E 036°44'0 0.0
2017-Nov-06 21:53N 45°28' E 036°44'0 0.0
2017-Nov-06 21:15N 45°28' E 036°44'0 0.0
2017-Nov-06 21:00N 45°28' E 036°44'0 0.0
2017-Nov-06 20:07N 45°28' E 036°44'0 0.0
2017-Nov-05 22:25N 45°28' E 036°44'0 0.0
2017-Nov-05 21:22N 45°28' E 036°44'0 0.0
2017-Nov-05 19:07N 45°28' E 036°44'0 0.0
2017-Nov-05 18:46N 45°28' E 036°44'0 0.0
2017-Nov-05 18:23N 45°28' E 036°44'0 0.0
2017-Nov-05 17:54N 45°28' E 036°44'0 0.0
2017-Nov-05 17:26N 45°28' E 036°44'0 0.0
2017-Nov-05 16:07N 45°28' E 036°44'0 0.0
2017-Nov-05 16:00N 45°28' E 036°44'0 0.0
2017-Nov-05 15:28N 45°28' E 036°44'0 0.0
2017-Nov-05 15:00N 45°28' E 036°44'0 0.0
2017-Nov-05 14:30N 45°28' E 036°44'0 0.0
2017-Nov-05 13:10N 45°28' E 036°44'0 0.0
2017-Nov-05 12:55N 45°28' E 036°44'0 0.0
2017-Nov-05 12:27N 45°28' E 036°44'0 0.0
2017-Nov-05 11:53N 45°28' E 036°44'0 0.0
2017-Nov-05 11:00N 45°28' E 036°44'0 0.0
2017-Nov-05 09:37N 45°28' E 036°44'0 0.0
2017-Nov-05 09:29N 45°28' E 036°44'0 0.0
2017-Nov-05 09:00N 45°28' E 036°44'0 0.0
2017-Nov-05 08:25N 45°28' E 036°44'0 0.0
2017-Nov-05 07:58N 45°28' E 036°44'0 0.0
2017-Nov-05 07:27N 45°28' E 036°44'0 0.0
2017-Nov-05 07:00N 45°28' E 036°44'0 0.0
2017-Nov-05 05:58N 45°28' E 036°44'0 0.0
2017-Nov-05 05:26N 45°28' E 036°44'0 0.0
2017-Nov-05 05:00N 45°28' E 036°44'0 0.0
2017-Nov-05 04:30N 45°28' E 036°44'0 0.0
2017-Nov-05 04:00N 45°28' E 036°44'0 0.0
2017-Nov-05 03:27N 45°28' E 036°44'0 0.0
2017-Nov-05 02:57N 45°28' E 036°44'0 0.0
2017-Nov-05 02:24N 45°28' E 036°44'0 0.0
2017-Nov-05 01:59N 45°28' E 036°44'0 0.0
2017-Nov-05 01:23N 45°28' E 036°44'0 0.0
2017-Nov-05 01:00N 45°28' E 036°44'0 0.0
2017-Nov-05 00:28N 45°28' E 036°44'0 0.0
2017-Nov-04 23:54N 45°28' E 036°44'0 0.0
2017-Nov-04 23:23N 45°28' E 036°44'0 0.0
2017-Nov-04 22:58N 45°28' E 036°44'0 0.0
2017-Nov-04 22:22N 45°28' E 036°44'0 0.0
2017-Nov-04 21:50N 45°28' E 036°44'0 0.0
2017-Nov-04 21:29N 45°28' E 036°44'0 0.0
2017-Nov-04 20:50N 45°28' E 036°44'0 0.0
2017-Nov-04 20:27N 45°28' E 036°44'0 0.0
2017-Nov-04 19:58N 45°28' E 036°44'0 0.0
2017-Nov-04 19:18N 45°28' E 036°44'0 0.0
2017-Nov-04 18:55N 45°28' E 036°44'0 0.0
2017-Nov-04 18:30N 45°28' E 036°44'0 0.0
2017-Nov-04 17:59N 45°28' E 036°44'0 0.0
2017-Nov-04 17:27N 45°28' E 036°44'0 0.0
2017-Nov-04 16:57N 45°28' E 036°44'0 0.0
2017-Nov-04 16:29N 45°28' E 036°44'0 0.0
2017-Nov-04 15:18N 45°28' E 036°44'0 0.0
2017-Nov-04 14:56N 45°28' E 036°44'0 0.0
2017-Nov-04 14:29N 45°28' E 036°44'0 0.0
2017-Nov-04 13:58N 45°28' E 036°44'0 0.0
2017-Nov-04 13:29N 45°28' E 036°44'0 0.0
2017-Nov-04 12:55N 45°28' E 036°44'0 0.0
2017-Nov-04 12:28N 45°28' E 036°44'0 0.0
2017-Nov-04 11:53N 45°28' E 036°44'0 0.0
2017-Nov-04 11:29N 45°28' E 036°44'0 0.0
2017-Nov-04 11:01N 45°28' E 036°44'0 0.0
2017-Nov-04 10:29N 45°28' E 036°44'0 0.0
2017-Nov-04 10:01N 45°28' E 036°44'0 0.0
2017-Nov-04 09:28N 45°28' E 036°44'0 0.0
2017-Nov-04 08:56N 45°28' E 036°44'0 0.0
2017-Nov-04 08:30N 45°28' E 036°44'0 0.0
2017-Nov-04 07:59N 45°28' E 036°44'0 0.0
2017-Nov-04 07:30N 45°28' E 036°44'0 0.0
2017-Nov-04 06:59N 45°28' E 036°44'0 0.0
2017-Nov-04 06:30N 45°28' E 036°44'0 0.0
2017-Nov-04 06:00N 45°28' E 036°44'0 0.0
2017-Nov-04 05:28N 45°28' E 036°44'0 0.0
2017-Nov-04 04:48N 45°28' E 036°44'0 0.0
2017-Nov-04 04:30N 45°28' E 036°44'0 0.0
2017-Nov-04 03:59N 45°28' E 036°44'0 0.0
2017-Nov-04 03:30N 45°28' E 036°44'0 0.0
2017-Nov-04 03:00N 45°28' E 036°44'0 0.0
2017-Nov-04 02:31N 45°28' E 036°44'0 0.0
2017-Nov-04 01:42N 45°28' E 036°44'0 0.0
2017-Nov-04 01:26N 45°28' E 036°44'0 0.0
2017-Nov-04 00:59N 45°28' E 036°44'0 0.0
2017-Nov-04 00:30N 45°28' E 036°44'0 0.0
2017-Nov-03 23:59N 45°28' E 036°44'0 0.0
2017-Nov-03 22:47N 45°28' E 036°44'0 0.0
2017-Nov-03 22:29N 45°28' E 036°44'0 0.0
2017-Nov-03 21:52N 45°28' E 036°44'0 0.1
2017-Nov-03 21:26N 45°28' E 036°44'0 0.0
2017-Nov-03 19:25N 45°28' E 036°44'0 0.0
2017-Nov-03 18:56N 45°28' E 036°44'0 0.0
2017-Nov-03 18:07N 45°28' E 036°44'0 0.0
2017-Nov-03 17:56N 45°28' E 036°44'0 0.0
2017-Nov-03 16:38N 45°28' E 036°44'0 0.0
2017-Nov-03 16:24N 45°28' E 036°44'0 0.0
2017-Nov-03 15:58N 45°28' E 036°44'0 0.0
2017-Nov-03 15:28N 45°28' E 036°44'0 0.0
2017-Nov-03 14:24N 45°28' E 036°44'0 0.0
2017-Nov-03 13:55N 45°28' E 036°44'0 0.0
2017-Nov-03 13:28N 45°28' E 036°44'0 0.0
2017-Nov-03 12:57N 45°28' E 036°44'0 0.0
2017-Nov-03 11:42N 45°28' E 036°44'0 0.0
2017-Nov-03 11:30N 45°28' E 036°44'0 0.0
2017-Nov-03 10:53N 45°28' E 036°44'0 0.0
2017-Nov-03 10:29N 45°28' E 036°44'0 0.0
2017-Nov-03 10:00N 45°28' E 036°44'0 0.0
2017-Nov-03 09:26N 45°28' E 036°44'0 0.0
2017-Nov-03 08:59N 45°28' E 036°44'0 0.1
2017-Nov-03 08:25N 45°28' E 036°44'1 2.7
2017-Nov-03 08:00N 45°29' E 036°46'3 4.0
2017-Nov-03 07:16N 45°31' E 036°49'0 0.3
2017-Nov-03 06:59N 45°31' E 036°49'2 3.6
2017-Nov-03 06:20N 45°29' E 036°47'1 4.4
2017-Nov-03 06:00N 45°28' E 036°45'0 0.7
2017-Nov-03 05:28N 45°28' E 036°44'0 0.0
2017-Nov-03 04:54N 45°28' E 036°44'0 0.0
2017-Nov-03 04:21N 45°28' E 036°44'0 0.0
2017-Nov-03 03:26N 45°28' E 036°44'0 0.0
2017-Nov-03 02:45N 45°28' E 036°44'0 0.1
2017-Nov-03 02:30N 45°28' E 036°44'0 0.0
2017-Nov-03 02:00N 45°28' E 036°44'0 0.0
2017-Nov-03 01:30N 45°28' E 036°44'0 0.0
2017-Nov-03 00:58N 45°28' E 036°44'0 0.1
2017-Nov-03 00:30N 45°28' E 036°44'0 0.1
2017-Nov-02 23:32N 45°28' E 036°45'0 0.0
2017-Nov-02 23:26N 45°28' E 036°45'0 0.0
2017-Nov-02 23:00N 45°28' E 036°45'0 0.0
2017-Nov-02 22:21N 45°28' E 036°45'0 0.0
2017-Nov-02 21:57N 45°28' E 036°45'0 0.0
2017-Nov-02 21:29N 45°28' E 036°45'0 0.0
2017-Nov-02 20:45N 45°28' E 036°45'0 0.0
2017-Nov-02 20:21N 45°28' E 036°45'0 0.0
2017-Nov-02 19:50N 45°28' E 036°45'0 0.0
2017-Nov-02 19:01N 45°28' E 036°45'0 0.0
2017-Nov-02 18:55N 45°28' E 036°45'0 0.0
2017-Nov-02 18:22N 45°28' E 036°45'0 0.0
2017-Nov-02 17:59N 45°28' E 036°45'0 0.0
2017-Nov-02 17:29N 45°28' E 036°45'0 0.0
2017-Nov-02 16:55N 45°28' E 036°45'0 0.0
2017-Nov-02 16:30N 45°28' E 036°45'0 0.0
2017-Nov-02 15:58N 45°28' E 036°45'0 0.0
2017-Nov-02 14:41N 45°28' E 036°45'0 0.0
2017-Nov-02 14:26N 45°28' E 036°45'0 0.0
2017-Nov-02 14:00N 45°28' E 036°45'0 0.0
2017-Nov-02 12:48N 45°28' E 036°45'0 0.0
2017-Nov-02 12:23N 45°28' E 036°45'0 0.0
2017-Nov-02 10:46N 45°28' E 036°45'0 0.0
2017-Nov-02 10:13N 45°28' E 036°45'0 0.0
2017-Nov-02 09:58N 45°28' E 036°45'0 0.0
2017-Nov-02 09:30N 45°28' E 036°45'0 0.0
2017-Nov-02 08:42N 45°28' E 036°45'0 0.0
2017-Nov-02 08:23N 45°28' E 036°45'0 0.0
2017-Nov-02 07:50N 45°28' E 036°45'0 0.0
2017-Nov-02 07:13N 45°28' E 036°45'0 0.0
2017-Nov-02 06:56N 45°28' E 036°45'0 0.0
2017-Nov-02 05:26N 45°28' E 036°45'0 0.0
2017-Nov-02 04:50N 45°28' E 036°45'0 0.0
2017-Nov-02 04:24N 45°28' E 036°45'0 0.0
2017-Nov-02 03:50N 45°28' E 036°45'0 0.0
2017-Nov-02 03:20N 45°28' E 036°45'0 0.0
2017-Nov-02 02:54N 45°28' E 036°45'0 0.0
2017-Nov-02 02:30N 45°28' E 036°45'0 0.0
2017-Nov-01 20:39N 45°28' E 036°45'0 0.1
2017-Nov-01 20:24N 45°28' E 036°45'0 0.0
2017-Nov-01 18:58N 45°28' E 036°45'  
Track history (hours):
 
Tides and Currents Weather Stations Pressure Air Temp Water Temp Dewpoint Dewpoint Depression Visibility Wind Speed Wind Dir Waves Ship Positions

Mekhanik Banatov

Last reported at 2017-Nov-10 19:54 UTC. Time now 2017-Nov-19 14:22 UTC.
Position N 45°32' E 036°46'.
Warning: this ship's position is 8 days out of date.

Length 132 m; draft 2.8 m.

Type: Tanker. MMSI: 273272100.

Date/timePositionNaut miles runAvg speedWind from/ knotsBaromVisibWave heightAir tempDewpointWater temp
2017-Nov-10 19:54N 45°32' E 036°46'4 7.3
2017-Nov-10 19:23N 45°29' E 036°43'3 7.3
2017-Nov-10 19:00N 45°27' E 036°42'4 7.1
2017-Nov-10 18:30N 45°23' E 036°41'3 5.5
2017-Nov-10 18:00N 45°21' E 036°39'3 6.0
2017-Nov-10 17:30N 45°20' E 036°35'3 6.3
2017-Nov-10 17:00N 45°19' E 036°31'3 6.1
2017-Nov-10 16:30N 45°16' E 036°29'2 4.2
2017-Nov-10 16:00N 45°14' E 036°29'1 1.4
2017-Nov-10 15:30N 45°14' E 036°30'1 0.4
2017-Nov-10 12:25N 45°13' E 036°31'0 0.1
2017-Nov-10 11:58N 45°13' E 036°31'0 0.0
2017-Nov-10 11:30N 45°13' E 036°31'0 0.0
2017-Nov-10 10:21N 45°13' E 036°31'0 0.0
2017-Nov-10 10:00N 45°13' E 036°31'0 0.0
2017-Nov-10 09:30N 45°13' E 036°31'0 0.0
2017-Nov-10 08:59N 45°13' E 036°31'1 1.9
2017-Nov-10 08:30N 45°12' E 036°31'4 6.8
2017-Nov-10 07:53N 45°08' E 036°32'5 0.4
2017-Nov-09 19:43N 45°12' E 036°28'3 6.9
2017-Nov-09 19:17N 45°15' E 036°28'3 6.6
2017-Nov-09 18:52N 45°18' E 036°29'3 6.9
2017-Nov-09 18:30N 45°19' E 036°33'3 6.4
2017-Nov-09 18:00N 45°20' E 036°37'3 5.7
2017-Nov-09 17:30N 45°22' E 036°40'3 6.9
2017-Nov-09 17:00N 45°25' E 036°41'2 3.2
2017-Nov-09 16:30N 45°26' E 036°42'2 3.6
2017-Nov-09 15:58N 45°28' E 036°44'0 0.5
2017-Nov-09 15:24N 45°28' E 036°44'0 0.0
2017-Nov-09 15:00N 45°28' E 036°44'0 0.0
2017-Nov-09 14:25N 45°28' E 036°44'0 0.0
2017-Nov-09 13:57N 45°28' E 036°44'0 0.0
2017-Nov-09 13:30N 45°28' E 036°44'0 0.0
2017-Nov-09 13:00N 45°28' E 036°44'0 0.0
2017-Nov-09 12:22N 45°28' E 036°44'0 0.0
2017-Nov-09 11:56N 45°28' E 036°44'0 0.0
2017-Nov-09 11:24N 45°28' E 036°44'0 0.0
2017-Nov-09 11:00N 45°28' E 036°44'0 0.0
2017-Nov-09 10:28N 45°28' E 036°44'0 0.0
2017-Nov-09 10:00N 45°28' E 036°44'0 0.0
2017-Nov-09 09:23N 45°28' E 036°44'0 0.0
2017-Nov-09 08:58N 45°28' E 036°44'0 0.0
2017-Nov-09 08:30N 45°28' E 036°44'0 0.0
2017-Nov-09 07:54N 45°28' E 036°44'0 0.0
2017-Nov-09 07:23N 45°28' E 036°44'0 0.0
2017-Nov-09 07:00N 45°28' E 036°44'0 0.0
2017-Nov-09 06:28N 45°28' E 036°44'0 0.0
2017-Nov-09 05:54N 45°28' E 036°44'0 0.0
2017-Nov-09 05:27N 45°28' E 036°44'0 0.0
2017-Nov-09 04:57N 45°28' E 036°44'0 0.0
2017-Nov-09 04:30N 45°28' E 036°44'0 0.0
2017-Nov-09 03:33N 45°28' E 036°44'0 0.0
2017-Nov-09 03:17N 45°28' E 036°44'0 0.0
2017-Nov-09 02:54N 45°28' E 036°44'0 0.0
2017-Nov-09 02:28N 45°28' E 036°44'0 0.0
2017-Nov-09 01:48N 45°28' E 036°44'0 0.0
2017-Nov-09 01:18N 45°28' E 036°44'0 0.0
2017-Nov-09 01:00N 45°28' E 036°44'0 0.0
2017-Nov-09 00:26N 45°28' E 036°44'0 0.0
2017-Nov-08 23:33N 45°28' E 036°44'0 0.0
2017-Nov-08 21:41N 45°28' E 036°44'0 0.0
2017-Nov-08 21:25N 45°28' E 036°44'0 0.0
2017-Nov-08 19:42N 45°28' E 036°44'0 0.0
2017-Nov-08 19:25N 45°28' E 036°44'0 0.0
2017-Nov-08 17:43N 45°28' E 036°44'0 0.0
2017-Nov-08 17:29N 45°28' E 036°44'0 0.0
2017-Nov-08 17:00N 45°28' E 036°44'0 0.0
2017-Nov-08 16:27N 45°28' E 036°44'0 0.0
2017-Nov-08 16:00N 45°28' E 036°44'0 0.0
2017-Nov-08 15:21N 45°28' E 036°44'0 0.0
2017-Nov-08 14:58N 45°28' E 036°44'0 0.0
2017-Nov-08 14:29N 45°28' E 036°44'0 0.0
2017-Nov-08 13:56N 45°28' E 036°44'0 0.0
2017-Nov-08 13:28N 45°28' E 036°44'0 0.0
2017-Nov-08 12:38N 45°28' E 036°44'0 0.0
2017-Nov-08 12:30N 45°28' E 036°44'0 0.0
2017-Nov-08 11:54N 45°28' E 036°44'0 0.0
2017-Nov-08 10:48N 45°28' E 036°44'0 0.0
2017-Nov-08 09:59N 45°28' E 036°44'0 0.0
2017-Nov-08 09:28N 45°28' E 036°44'0 0.0
2017-Nov-08 08:57N 45°28' E 036°44'0 0.0
2017-Nov-08 08:29N 45°28' E 036°44'0 0.0
2017-Nov-08 08:00N 45°28' E 036°44'0 0.0
2017-Nov-08 07:27N 45°28' E 036°44'0 0.0
2017-Nov-08 06:56N 45°28' E 036°44'0 0.0
2017-Nov-08 06:24N 45°28' E 036°44'0 0.0
2017-Nov-08 05:51N 45°28' E 036°44'0 0.0
2017-Nov-08 05:19N 45°28' E 036°44'0 0.0
2017-Nov-08 04:49N 45°28' E 036°44'0 0.0
2017-Nov-08 04:17N 45°28' E 036°44'0 0.0
2017-Nov-08 04:00N 45°28' E 036°44'0 0.0
2017-Nov-08 03:28N 45°28' E 036°44'0 0.0
2017-Nov-08 01:45N 45°28' E 036°44'0 0.0
2017-Nov-08 01:21N 45°28' E 036°44'0 0.0
2017-Nov-08 00:17N 45°28' E 036°44'0 0.0
2017-Nov-07 23:56N 45°28' E 036°44'0 0.0
2017-Nov-07 23:27N 45°28' E 036°44'0 0.0
2017-Nov-07 22:31N 45°28' E 036°44'0 0.1
2017-Nov-07 22:28N 45°28' E 036°44'0 0.0
2017-Nov-07 19:50N 45°28' E 036°44'0 0.0
2017-Nov-07 18:32N 45°28' E 036°44'0 0.0
2017-Nov-07 18:24N 45°28' E 036°44'0 0.0
2017-Nov-07 17:59N 45°28' E 036°44'0 0.0
2017-Nov-07 17:28N 45°28' E 036°44'0 0.0
2017-Nov-07 16:59N 45°28' E 036°44'0 0.0
2017-Nov-07 16:28N 45°28' E 036°44'0 0.0
2017-Nov-07 15:59N 45°28' E 036°44'0 0.0
2017-Nov-07 15:25N 45°28' E 036°44'0 0.0
2017-Nov-07 14:54N 45°28' E 036°44'0 0.0
2017-Nov-07 14:28N 45°28' E 036°44'0 0.0
2017-Nov-07 14:00N 45°28' E 036°44'0 0.0
2017-Nov-07 13:28N 45°28' E 036°44'0 0.0
2017-Nov-07 12:58N 45°28' E 036°44'0 0.0
2017-Nov-07 12:28N 45°28' E 036°44'0 0.0
2017-Nov-07 11:56N 45°28' E 036°44'0 0.0
2017-Nov-07 11:22N 45°28' E 036°44'0 0.0
2017-Nov-07 10:55N 45°28' E 036°44'0 0.0
2017-Nov-07 10:30N 45°28' E 036°44'0 0.0
2017-Nov-07 09:59N 45°28' E 036°44'0 0.0
2017-Nov-07 09:29N 45°28' E 036°44'0 0.0
2017-Nov-07 08:57N 45°28' E 036°44'0 0.0
2017-Nov-07 08:30N 45°28' E 036°44'0 0.0
2017-Nov-07 07:45N 45°28' E 036°44'0 0.0
2017-Nov-07 07:29N 45°28' E 036°44'0 0.0
2017-Nov-07 06:54N 45°28' E 036°44'0 0.0
2017-Nov-07 06:25N 45°28' E 036°44'0 0.0
2017-Nov-07 05:53N 45°28' E 036°44'0 0.0
2017-Nov-07 05:29N 45°28' E 036°44'0 0.0
2017-Nov-07 04:55N 45°28' E 036°44'0 0.0
2017-Nov-07 04:24N 45°28' E 036°44'0 0.0
2017-Nov-07 03:59N 45°28' E 036°44'0 0.0
2017-Nov-07 03:30N 45°28' E 036°44'0 0.0
2017-Nov-07 01:19N 45°28' E 036°44'0 0.0
2017-Nov-07 00:49N 45°28' E 036°44'0 0.0
2017-Nov-07 00:25N 45°28' E 036°44'0 0.0
2017-Nov-07 00:00N 45°28' E 036°44'0 0.0
2017-Nov-06 22:48N 45°28' E 036°44'0 0.0
2017-Nov-06 22:28N 45°28' E 036°44'0 0.0
2017-Nov-06 21:53N 45°28' E 036°44'0 0.0
2017-Nov-06 21:15N 45°28' E 036°44'0 0.0
2017-Nov-06 21:00N 45°28' E 036°44'0 0.0
2017-Nov-06 20:07N 45°28' E 036°44'0 0.0
2017-Nov-05 22:25N 45°28' E 036°44'0 0.0
2017-Nov-05 21:22N 45°28' E 036°44'0 0.0
2017-Nov-05 19:07N 45°28' E 036°44'0 0.0
2017-Nov-05 18:46N 45°28' E 036°44'0 0.0
2017-Nov-05 18:23N 45°28' E 036°44'0 0.0
2017-Nov-05 17:54N 45°28' E 036°44'0 0.0
2017-Nov-05 17:26N 45°28' E 036°44'0 0.0
2017-Nov-05 16:07N 45°28' E 036°44'0 0.0
2017-Nov-05 16:00N 45°28' E 036°44'0 0.0
2017-Nov-05 15:28N 45°28' E 036°44'0 0.0
2017-Nov-05 15:00N 45°28' E 036°44'0 0.0
2017-Nov-05 14:30N 45°28' E 036°44'0 0.0
2017-Nov-05 13:10N 45°28' E 036°44'0 0.0
2017-Nov-05 12:55N 45°28' E 036°44'0 0.0
2017-Nov-05 12:27N 45°28' E 036°44'0 0.0
2017-Nov-05 11:53N 45°28' E 036°44'0 0.0
2017-Nov-05 11:00N 45°28' E 036°44'0 0.0
2017-Nov-05 09:37N 45°28' E 036°44'0 0.0
2017-Nov-05 09:29N 45°28' E 036°44'0 0.0
2017-Nov-05 09:00N 45°28' E 036°44'0 0.0
2017-Nov-05 08:25N 45°28' E 036°44'0 0.0
2017-Nov-05 07:58N 45°28' E 036°44'0 0.0
2017-Nov-05 07:27N 45°28' E 036°44'0 0.0
2017-Nov-05 07:00N 45°28' E 036°44'0 0.0
2017-Nov-05 05:58N 45°28' E 036°44'0 0.0
2017-Nov-05 05:26N 45°28' E 036°44'0 0.0
2017-Nov-05 05:00N 45°28' E 036°44'0 0.0
2017-Nov-05 04:30N 45°28' E 036°44'0 0.0
2017-Nov-05 04:00N 45°28' E 036°44'0 0.0
2017-Nov-05 03:27N 45°28' E 036°44'0 0.0
2017-Nov-05 02:57N 45°28' E 036°44'0 0.0
2017-Nov-05 02:24N 45°28' E 036°44'0 0.0
2017-Nov-05 01:59N 45°28' E 036°44'0 0.0
2017-Nov-05 01:23N 45°28' E 036°44'0 0.0
2017-Nov-05 01:00N 45°28' E 036°44'0 0.0
2017-Nov-05 00:28N 45°28' E 036°44'0 0.0
2017-Nov-04 23:54N 45°28' E 036°44'0 0.0
2017-Nov-04 23:23N 45°28' E 036°44'0 0.0
2017-Nov-04 22:58N 45°28' E 036°44'0 0.0
2017-Nov-04 22:22N 45°28' E 036°44'0 0.0
2017-Nov-04 21:50N 45°28' E 036°44'0 0.0
2017-Nov-04 21:29N 45°28' E 036°44'0 0.0
2017-Nov-04 20:50N 45°28' E 036°44'0 0.0
2017-Nov-04 20:27N 45°28' E 036°44'0 0.0
2017-Nov-04 19:58N 45°28' E 036°44'0 0.0
2017-Nov-04 19:18N 45°28' E 036°44'0 0.0
2017-Nov-04 18:55N 45°28' E 036°44'0 0.0
2017-Nov-04 18:30N 45°28' E 036°44'0 0.0
2017-Nov-04 17:59N 45°28' E 036°44'0 0.0
2017-Nov-04 17:27N 45°28' E 036°44'0 0.0
2017-Nov-04 16:57N 45°28' E 036°44'0 0.0
2017-Nov-04 16:29N 45°28' E 036°44'0 0.0
2017-Nov-04 15:18N 45°28' E 036°44'0 0.0
2017-Nov-04 14:56N 45°28' E 036°44'0 0.0
2017-Nov-04 14:29N 45°28' E 036°44'0 0.0
2017-Nov-04 13:58N 45°28' E 036°44'0 0.0
2017-Nov-04 13:29N 45°28' E 036°44'0 0.0
2017-Nov-04 12:55N 45°28' E 036°44'0 0.0
2017-Nov-04 12:28N 45°28' E 036°44'0 0.0
2017-Nov-04 11:53N 45°28' E 036°44'0 0.0
2017-Nov-04 11:29N 45°28' E 036°44'0 0.0
2017-Nov-04 11:01N 45°28' E 036°44'0 0.0
2017-Nov-04 10:29N 45°28' E 036°44'0 0.0
2017-Nov-04 10:01N 45°28' E 036°44'0 0.0
2017-Nov-04 09:28N 45°28' E 036°44'0 0.0
2017-Nov-04 08:56N 45°28' E 036°44'0 0.0
2017-Nov-04 08:30N 45°28' E 036°44'0 0.0
2017-Nov-04 07:59N 45°28' E 036°44'0 0.0
2017-Nov-04 07:30N 45°28' E 036°44'0 0.0
2017-Nov-04 06:59N 45°28' E 036°44'0 0.0
2017-Nov-04 06:30N 45°28' E 036°44'0 0.0
2017-Nov-04 06:00N 45°28' E 036°44'0 0.0
2017-Nov-04 05:28N 45°28' E 036°44'0 0.0
2017-Nov-04 04:48N 45°28' E 036°44'0 0.0
2017-Nov-04 04:30N 45°28' E 036°44'0 0.0
2017-Nov-04 03:59N 45°28' E 036°44'0 0.0
2017-Nov-04 03:30N 45°28' E 036°44'0 0.0
2017-Nov-04 03:00N 45°28' E 036°44'0 0.0
2017-Nov-04 02:31N 45°28' E 036°44'0 0.0
2017-Nov-04 01:42N 45°28' E 036°44'0 0.0
2017-Nov-04 01:26N 45°28' E 036°44'0 0.0
2017-Nov-04 00:59N 45°28' E 036°44'0 0.0
2017-Nov-04 00:30N 45°28' E 036°44'0 0.0
2017-Nov-03 23:59N 45°28' E 036°44'0 0.0
2017-Nov-03 22:47N 45°28' E 036°44'0 0.0
2017-Nov-03 22:29N 45°28' E 036°44'0 0.0
2017-Nov-03 21:52N 45°28' E 036°44'0 0.1
2017-Nov-03 21:26N 45°28' E 036°44'0 0.0
2017-Nov-03 19:25N 45°28' E 036°44'0 0.0
2017-Nov-03 18:56N 45°28' E 036°44'0 0.0
2017-Nov-03 18:07N 45°28' E 036°44'0 0.0
2017-Nov-03 17:56N 45°28' E 036°44'0 0.0
2017-Nov-03 16:38N 45°28' E 036°44'0 0.0
2017-Nov-03 16:24N 45°28' E 036°44'0 0.0
2017-Nov-03 15:58N 45°28' E 036°44'0 0.0
2017-Nov-03 15:28N 45°28' E 036°44'0 0.0
2017-Nov-03 14:24N 45°28' E 036°44'0 0.0
2017-Nov-03 13:55N 45°28' E 036°44'0 0.0
2017-Nov-03 13:28N 45°28' E 036°44'0 0.0
2017-Nov-03 12:57N 45°28' E 036°44'0 0.0
2017-Nov-03 11:42N 45°28' E 036°44'0 0.0
2017-Nov-03 11:30N 45°28' E 036°44'0 0.0
2017-Nov-03 10:53N 45°28' E 036°44'0 0.0
2017-Nov-03 10:29N 45°28' E 036°44'0 0.0
2017-Nov-03 10:00N 45°28' E 036°44'0 0.0
2017-Nov-03 09:26N 45°28' E 036°44'0 0.0
2017-Nov-03 08:59N 45°28' E 036°44'0 0.1
2017-Nov-03 08:25N 45°28' E 036°44'1 2.7
2017-Nov-03 08:00N 45°29' E 036°46'3 4.0
2017-Nov-03 07:16N 45°31' E 036°49'0 0.3
2017-Nov-03 06:59N 45°31' E 036°49'2 3.6
2017-Nov-03 06:20N 45°29' E 036°47'1 4.4
2017-Nov-03 06:00N 45°28' E 036°45'0 0.7
2017-Nov-03 05:28N 45°28' E 036°44'0 0.0
2017-Nov-03 04:54N 45°28' E 036°44'0 0.0
2017-Nov-03 04:21N 45°28' E 036°44'0 0.0
2017-Nov-03 03:26N 45°28' E 036°44'0 0.0
2017-Nov-03 02:45N 45°28' E 036°44'0 0.1
2017-Nov-03 02:30N 45°28' E 036°44'0 0.0
2017-Nov-03 02:00N 45°28' E 036°44'0 0.0
2017-Nov-03 01:30N 45°28' E 036°44'0 0.0
2017-Nov-03 00:58N 45°28' E 036°44'0 0.1
2017-Nov-03 00:30N 45°28' E 036°44'0 0.1
2017-Nov-02 23:32N 45°28' E 036°45'0 0.0
2017-Nov-02 23:26N 45°28' E 036°45'0 0.0
2017-Nov-02 23:00N 45°28' E 036°45'0 0.0
2017-Nov-02 22:21N 45°28' E 036°45'0 0.0
2017-Nov-02 21:57N 45°28' E 036°45'0 0.0
2017-Nov-02 21:29N 45°28' E 036°45'0 0.0
2017-Nov-02 20:45N 45°28' E 036°45'0 0.0
2017-Nov-02 20:21N 45°28' E 036°45'0 0.0
2017-Nov-02 19:50N 45°28' E 036°45'0 0.0
2017-Nov-02 19:01N 45°28' E 036°45'0 0.0
2017-Nov-02 18:55N 45°28' E 036°45'0 0.0
2017-Nov-02 18:22N 45°28' E 036°45'0 0.0
2017-Nov-02 17:59N 45°28' E 036°45'0 0.0
2017-Nov-02 17:29N 45°28' E 036°45'0 0.0
2017-Nov-02 16:55N 45°28' E 036°45'0 0.0
2017-Nov-02 16:30N 45°28' E 036°45'0 0.0
2017-Nov-02 15:58N 45°28' E 036°45'0 0.0
2017-Nov-02 14:41N 45°28' E 036°45'0 0.0
2017-Nov-02 14:26N 45°28' E 036°45'0 0.0
2017-Nov-02 14:00N 45°28' E 036°45'0 0.0
2017-Nov-02 12:48N 45°28' E 036°45'0 0.0
2017-Nov-02 12:23N 45°28' E 036°45'0 0.0
2017-Nov-02 10:46N 45°28' E 036°45'0 0.0
2017-Nov-02 10:13N 45°28' E 036°45'0 0.0
2017-Nov-02 09:58N 45°28' E 036°45'0 0.0
2017-Nov-02 09:30N 45°28' E 036°45'0 0.0
2017-Nov-02 08:42N 45°28' E 036°45'0 0.0
2017-Nov-02 08:23N 45°28' E 036°45'0 0.0
2017-Nov-02 07:50N 45°28' E 036°45'0 0.0
2017-Nov-02 07:13N 45°28' E 036°45'0 0.0
2017-Nov-02 06:56N 45°28' E 036°45'0 0.0
2017-Nov-02 05:26N 45°28' E 036°45'0 0.0
2017-Nov-02 04:50N 45°28' E 036°45'0 0.0
2017-Nov-02 04:24N 45°28' E 036°45'0 0.0
2017-Nov-02 03:50N 45°28' E 036°45'0 0.0
2017-Nov-02 03:20N 45°28' E 036°45'0 0.0
2017-Nov-02 02:54N 45°28' E 036°45'0 0.0
2017-Nov-02 02:30N 45°28' E 036°45'0 0.0
2017-Nov-01 20:39N 45°28' E 036°45'0 0.1
2017-Nov-01 20:24N 45°28' E 036°45'0 0.0
2017-Nov-01 18:58N 45°28' E 036°45'  

Dump ship's entire track history